createdAt,value
2023-04-01T00:00:19.885Z,11.04
2023-04-01T00:03:29.213Z,10.99
2023-04-01T00:06:38.214Z,10.98
2023-04-01T00:09:52.896Z,10.98
2023-04-01T00:12:54.670Z,10.87
2023-04-01T00:16:19.685Z,10.74
2023-04-01T00:19:23.206Z,10.71
2023-04-01T00:22:37.975Z,10.61
2023-04-01T00:25:39.685Z,10.50
2023-04-01T00:28:54.946Z,10.61
2023-04-01T00:32:04.967Z,10.47
2023-04-01T00:35:19.980Z,10.42
2023-04-01T00:38:21.957Z,10.37
2023-04-01T00:41:43.943Z,10.36
2023-04-01T00:44:51.581Z,10.32
2023-04-01T00:48:11.978Z,10.28
2023-04-01T00:51:21.313Z,10.28
2023-04-01T00:54:37.921Z,10.27
2023-04-01T00:57:43.272Z,10.31
2023-04-01T01:00:59.062Z,10.20
2023-04-01T01:04:00.776Z,10.41
2023-04-01T01:07:35.980Z,10.42
2023-04-01T01:10:40.195Z,10.42
2023-04-01T01:14:04.301Z,10.47
2023-04-01T01:17:20.300Z,10.53
2023-04-01T01:20:56.657Z,10.59
2023-04-01T01:24:24.993Z,10.49
2023-04-01T01:27:42.194Z,10.44
2023-04-01T01:31:05.019Z,10.51
2023-04-01T01:34:34.945Z,10.55
2023-04-01T01:37:39.161Z,10.53
2023-04-01T01:40:58.071Z,10.55
2023-04-01T01:44:17.004Z,10.48
2023-04-01T01:47:24.884Z,10.44
2023-04-01T01:50:40.965Z,10.37
2023-04-01T01:53:46.381Z,10.32
2023-04-01T01:57:12.996Z,10.46
2023-04-01T02:00:18.894Z,10.46
2023-04-01T02:03:37.992Z,10.44
2023-04-01T02:07:00.977Z,10.54
2023-04-01T02:10:02.897Z,10.53
2023-04-01T02:13:28.046Z,10.45
2023-04-01T02:16:36.079Z,10.53
2023-04-01T02:20:04.094Z,10.58
2023-04-01T02:23:07.890Z,10.63
2023-04-01T02:26:24.014Z,10.70
2023-04-01T02:29:33.007Z,10.74
2023-04-01T02:32:50.135Z,10.73
2023-04-01T02:35:59.860Z,10.74
2023-04-01T02:39:09.021Z,10.75
2023-04-01T02:42:24.274Z,10.80
2023-04-01T02:45:33.183Z,10.79
2023-04-01T02:48:42.146Z,10.81
2023-04-01T02:51:58.041Z,10.78
2023-04-01T02:55:13.993Z,10.73
2023-04-01T02:58:21.987Z,10.70
2023-04-01T03:01:30.519Z,10.69
2023-04-01T03:04:39.001Z,10.62
2023-04-01T03:07:54.009Z,10.61
2023-04-01T03:10:55.695Z,10.62
2023-04-01T03:14:09.999Z,10.58
2023-04-01T03:17:11.743Z,10.50
2023-04-01T03:20:26.021Z,10.48
2023-04-01T03:23:27.855Z,10.44
2023-04-01T03:26:43.038Z,10.41
2023-04-01T03:29:51.985Z,10.37
2023-04-01T03:33:00.259Z,10.39
2023-04-01T03:36:16.308Z,10.43
2023-04-01T03:39:18.232Z,10.34
2023-04-01T03:42:40.136Z,10.32
2023-04-01T03:45:50.329Z,10.34
2023-04-01T03:49:05.430Z,10.31
2023-04-01T03:52:17.006Z,10.27
2023-04-01T03:55:28.883Z,10.30
2023-04-01T03:58:37.046Z,10.32
2023-04-01T04:01:54.009Z,10.33
2023-04-01T04:04:55.687Z,10.32
2023-04-01T04:08:11.074Z,10.29
2023-04-01T04:11:12.850Z,10.27
2023-04-01T04:14:27.241Z,10.33
2023-04-01T04:17:36.076Z,10.29
2023-04-01T04:20:53.159Z,10.32
2023-04-01T04:24:08.473Z,10.32
2023-04-01T04:27:10.081Z,10.36
2023-04-01T04:30:25.107Z,10.36
2023-04-01T04:33:27.122Z,10.38
2023-04-01T04:36:42.793Z,10.43
2023-04-01T04:39:44.474Z,10.41
2023-04-01T04:43:09.109Z,10.40
2023-04-01T04:46:12.133Z,10.53
2023-04-01T04:49:30.052Z,10.55
2023-04-01T04:52:38.685Z,10.50
2023-04-01T04:55:55.303Z,10.51
2023-04-01T04:59:04.094Z,10.56
2023-04-01T05:02:19.111Z,10.61
2023-04-01T05:05:20.821Z,10.62
2023-04-01T05:08:35.074Z,10.56
2023-04-01T05:11:36.757Z,10.54
2023-04-01T05:14:52.067Z,10.57
2023-04-01T05:17:56.399Z,10.64
2023-04-01T05:21:12.030Z,10.75
2023-04-01T05:24:13.714Z,10.78
2023-04-01T05:27:29.085Z,10.70
2023-04-01T05:30:37.435Z,10.75
2023-04-01T05:33:52.056Z,10.75
2023-04-01T05:37:00.070Z,10.80
2023-04-01T05:40:22.065Z,10.86
2023-04-01T05:43:31.088Z,10.92
2023-04-01T05:46:39.921Z,10.97
2023-04-01T05:49:48.102Z,11.01
2023-04-01T05:53:03.082Z,11.10
2023-04-01T05:56:11.163Z,11.19
2023-04-01T05:59:21.046Z,11.28
2023-04-01T06:02:36.165Z,11.36
2023-04-01T06:05:48.105Z,11.51
2023-04-01T06:08:58.274Z,11.63
2023-04-01T06:12:27.077Z,11.69
2023-04-01T06:15:57.091Z,11.81
2023-04-01T06:19:22.070Z,11.87
2023-04-01T06:22:59.443Z,11.81
2023-04-01T06:26:27.197Z,11.90
2023-04-01T06:30:06.094Z,11.93
2023-04-01T06:33:44.456Z,11.95
2023-04-01T06:37:20.427Z,12.12
2023-04-01T06:41:07.004Z,12.23
2023-04-01T06:44:42.738Z,12.26
2023-04-01T06:48:15.432Z,12.32
2023-04-01T06:51:43.114Z,12.33
2023-04-01T06:55:03.022Z,12.38
2023-04-01T06:58:18.491Z,12.50
2023-04-01T07:01:47.177Z,12.50
2023-04-01T07:05:05.102Z,12.47
2023-04-01T07:08:11.659Z,12.60
2023-04-01T07:11:36.362Z,12.70
2023-04-01T07:14:52.131Z,12.67
2023-04-01T07:18:13.040Z,12.74
2023-04-01T07:21:37.288Z,12.81
2023-04-01T07:24:53.133Z,12.84
2023-04-01T07:28:09.101Z,12.92
2023-04-01T07:31:45.258Z,12.93
2023-04-01T07:35:08.177Z,13.16
2023-04-01T07:38:51.267Z,13.13
2023-04-01T07:42:14.763Z,13.16
2023-04-01T07:45:38.162Z,13.49
2023-04-01T07:49:10.859Z,13.60
2023-04-01T07:56:06.276Z,14.18
2023-04-01T07:59:38.177Z,14.36
2023-04-01T08:03:03.613Z,14.37
2023-04-01T08:06:38.163Z,14.55
2023-04-01T08:10:13.458Z,14.32
2023-04-01T08:13:54.141Z,14.41
2023-04-01T08:17:24.824Z,14.79
2023-04-01T08:20:47.885Z,14.78
2023-04-01T08:27:31.166Z,14.70
2023-04-01T08:30:51.203Z,14.77
2023-04-01T08:34:04.922Z,14.32
2023-04-01T08:37:28.369Z,14.49
2023-04-01T08:41:05.202Z,14.48
2023-04-01T08:44:35.648Z,14.63
2023-04-01T08:48:02.215Z,14.85
2023-04-01T08:51:53.194Z,14.67
2023-04-01T08:55:22.101Z,14.66
2023-04-01T08:59:06.195Z,14.82
2023-04-01T09:02:37.234Z,14.57
2023-04-01T09:10:07.521Z,14.94
2023-04-01T09:13:43.158Z,14.87
2023-04-01T09:17:12.063Z,15.10
2023-04-01T09:20:45.179Z,15.09
2023-04-01T09:24:19.045Z,15.09
2023-04-01T09:27:47.457Z,15.33
2023-04-01T09:31:19.305Z,15.62
2023-04-01T09:34:34.560Z,14.99
2023-04-01T09:38:02.965Z,14.69
2023-04-01T09:41:30.713Z,14.23
2023-04-01T09:45:09.247Z,13.93
2023-04-01T09:48:45.833Z,13.88
2023-04-01T09:52:07.489Z,14.03
2023-04-01T09:55:52.236Z,14.22
2023-04-01T09:59:25.198Z,14.27
2023-04-01T10:03:07.133Z,14.38
2023-04-01T10:06:35.185Z,14.68
2023-04-01T10:10:26.583Z,14.60
2023-04-01T10:14:07.544Z,14.25
2023-04-01T10:17:44.573Z,14.21
2023-04-01T10:25:06.090Z,14.56
2023-04-01T10:28:50.217Z,14.69
2023-04-01T10:32:21.273Z,14.77
2023-04-01T10:35:54.717Z,14.78
2023-04-01T10:39:25.260Z,14.73
2023-04-01T10:43:00.676Z,15.04
2023-04-01T10:46:57.422Z,15.46
2023-04-01T10:50:42.952Z,15.32
2023-04-01T10:54:12.284Z,15.21
2023-04-01T10:57:41.901Z,15.76
2023-04-01T11:01:23.270Z,15.93
2023-04-01T11:05:00.422Z,16.25
2023-04-01T11:12:29.113Z,15.68
2023-04-01T11:15:57.430Z,16.14
2023-04-01T11:20:05.967Z,15.84
2023-04-01T11:23:42.785Z,17.40
2023-04-01T11:27:15.736Z,17.42
2023-04-01T11:31:01.389Z,19.32
2023-04-01T11:34:28.468Z,18.68
2023-04-01T11:38:03.285Z,18.17
2023-04-01T11:41:41.382Z,16.84
2023-04-01T11:45:16.135Z,16.11
2023-04-01T11:48:55.707Z,15.85
2023-04-01T11:52:24.877Z,15.37
2023-04-01T11:55:51.411Z,15.13
2023-04-01T11:59:31.101Z,15.12
2023-04-01T12:03:09.402Z,14.99
2023-04-01T12:06:59.002Z,14.59
2023-04-01T12:10:22.880Z,14.91
2023-04-01T12:13:58.656Z,15.03
2023-04-01T12:17:35.317Z,15.37
2023-04-01T12:21:03.376Z,15.56
2023-04-01T12:24:30.853Z,15.74
2023-04-01T12:28:00.572Z,15.81
2023-04-01T12:31:25.077Z,16.00
2023-04-01T12:34:52.274Z,16.20
2023-04-01T12:38:26.284Z,15.84
2023-04-01T12:41:47.405Z,15.40
2023-04-01T12:45:26.359Z,15.35
2023-04-01T12:49:02.633Z,15.39
2023-04-01T12:53:02.424Z,15.58
2023-04-01T12:56:15.321Z,15.90
2023-04-01T12:59:52.064Z,16.16
2023-04-01T13:03:30.379Z,16.24
2023-04-01T13:07:06.634Z,16.30
2023-04-01T13:10:37.635Z,16.07
2023-04-01T13:14:15.892Z,16.43
2023-04-01T13:17:56.496Z,15.99
2023-04-01T13:21:34.354Z,15.98
2023-04-01T13:24:51.897Z,16.19
2023-04-01T13:28:22.477Z,16.01
2023-04-01T13:32:00.442Z,15.57
2023-04-01T13:35:36.587Z,15.77
2023-04-01T13:39:03.131Z,16.05
2023-04-01T13:42:28.145Z,16.03
2023-04-01T13:45:52.367Z,16.02
2023-04-01T13:49:31.361Z,15.83
2023-04-01T13:53:25.451Z,15.91
2023-04-01T13:56:57.464Z,15.70
2023-04-01T14:00:31.484Z,15.43
2023-04-01T14:03:51.524Z,15.29
2023-04-01T14:07:17.346Z,15.20
2023-04-01T14:10:54.333Z,15.19
2023-04-01T14:14:30.144Z,15.04
2023-04-01T14:21:49.404Z,14.89
2023-04-01T14:25:26.792Z,14.76
2023-04-01T14:29:02.445Z,14.62
2023-04-01T14:32:59.479Z,14.64
2023-04-01T14:36:39.957Z,14.78
2023-04-01T14:40:07.390Z,14.92
2023-04-01T14:43:59.391Z,15.05
2023-04-01T14:47:37.418Z,15.26
2023-04-01T14:50:56.376Z,15.49
2023-04-01T14:54:30.022Z,15.23
2023-04-01T14:57:46.718Z,15.40
2023-04-01T15:01:01.643Z,15.66
2023-04-01T15:04:48.465Z,15.77
2023-04-01T15:08:20.406Z,15.70
2023-04-01T15:11:49.095Z,15.60
2023-04-01T15:15:25.198Z,15.70
2023-04-01T15:19:00.606Z,15.71
2023-04-01T15:22:23.955Z,15.81
2023-04-01T15:25:56.417Z,15.90
2023-04-01T15:29:26.514Z,15.82
2023-04-01T15:33:10.624Z,15.90
2023-04-01T15:36:42.437Z,15.87
2023-04-01T15:44:08.462Z,15.95
2023-04-01T15:47:44.720Z,15.87
2023-04-01T15:51:16.944Z,15.93
2023-04-01T15:54:51.123Z,15.83
2023-04-01T16:01:59.090Z,15.85
2023-04-01T16:05:36.372Z,15.80
2023-04-01T16:09:14.515Z,15.74
2023-04-01T16:12:37.029Z,15.63
2023-04-01T16:16:15.792Z,15.57
2023-04-01T16:19:55.429Z,15.47
2023-04-01T16:23:02.795Z,15.49
2023-04-01T16:26:31.908Z,15.39
2023-04-01T16:29:50.521Z,15.35
2023-04-01T16:33:17.719Z,15.34
2023-04-01T16:36:39.755Z,15.23
2023-04-01T16:40:14.470Z,15.33
2023-04-01T16:44:02.264Z,15.24
2023-04-01T16:47:11.948Z,15.26
2023-04-01T16:50:33.205Z,15.17
2023-04-01T16:54:06.738Z,15.02
2023-04-01T16:57:58.195Z,14.94
2023-04-01T17:06:02.348Z,15.50
2023-04-01T17:09:50.157Z,15.50
2023-04-01T17:13:30.480Z,14.81
2023-04-01T17:17:08.164Z,14.68
2023-04-01T17:20:35.828Z,14.68
2023-04-01T17:24:25.118Z,14.67
2023-04-01T17:28:01.105Z,14.55
2023-04-01T17:31:40.836Z,14.54
2023-04-01T17:35:07.636Z,14.53
2023-04-01T17:38:52.364Z,14.46
2023-04-01T17:42:22.694Z,14.45
2023-04-01T17:45:54.697Z,14.39
2023-04-01T17:49:26.512Z,14.45
2023-04-01T17:52:45.348Z,14.44
2023-04-01T17:56:24.344Z,14.42
2023-04-01T17:59:58.388Z,14.37
2023-04-01T18:03:33.075Z,14.36
2023-04-01T18:07:28.409Z,14.35
2023-04-01T18:10:56.692Z,14.27
2023-04-01T18:14:46.169Z,14.27
2023-04-01T18:18:37.110Z,14.19
2023-04-01T18:21:47.671Z,14.20
2023-04-01T18:25:17.118Z,14.11
2023-04-01T18:28:35.722Z,14.02
2023-04-01T18:31:55.952Z,13.98
2023-04-01T18:35:30.458Z,13.90
2023-04-01T18:38:46.550Z,13.88
2023-04-01T18:42:10.108Z,13.87
2023-04-01T18:45:41.354Z,13.80
2023-04-01T18:48:53.069Z,13.81
2023-04-01T18:52:23.129Z,13.71
2023-04-01T18:55:34.400Z,13.71
2023-04-01T18:59:15.371Z,13.62
2023-04-01T19:02:36.245Z,13.57
2023-04-01T19:05:56.560Z,13.49
2023-04-01T19:09:36.386Z,13.42
2023-04-01T19:13:08.624Z,13.35
2023-04-01T19:20:47.348Z,13.30
2023-04-01T19:24:19.961Z,13.22
2023-04-01T19:27:35.405Z,13.16
2023-04-01T19:31:07.178Z,13.13
2023-04-01T19:34:32.430Z,13.17
2023-04-01T19:38:11.146Z,13.08
2023-04-01T19:41:42.322Z,13.00
2023-04-01T19:45:08.089Z,13.05
2023-04-01T19:48:46.273Z,13.05
2023-04-01T19:52:34.230Z,13.03
2023-04-01T19:55:58.951Z,13.05
2023-04-01T19:59:27.894Z,13.03
2023-04-01T20:03:02.592Z,12.99
2023-04-01T20:06:40.558Z,12.96
2023-04-01T20:10:00.138Z,12.89
2023-04-01T20:13:41.401Z,12.82
2023-04-01T20:17:10.512Z,12.83
2023-04-01T20:20:28.300Z,12.79
2023-04-01T20:23:46.399Z,12.74
2023-04-01T20:30:46.841Z,12.59
2023-04-01T20:34:19.478Z,12.57
2023-04-01T20:37:41.047Z,12.43
2023-04-01T20:41:09.660Z,12.32
2023-04-01T20:48:58.668Z,12.25
2023-04-01T20:52:32.280Z,12.28
2023-04-01T20:56:14.196Z,12.30
2023-04-01T20:59:50.233Z,12.28
2023-04-01T21:03:31.178Z,12.06
2023-04-01T21:06:58.713Z,11.94
2023-04-01T21:10:34.217Z,11.72
2023-04-01T21:14:04.354Z,11.62
2023-04-01T21:17:46.000Z,11.44
2023-04-01T21:21:22.239Z,11.54
2023-04-01T21:24:59.233Z,11.47
2023-04-01T21:28:22.017Z,11.44
2023-04-01T21:31:56.243Z,11.45
2023-04-01T21:35:19.498Z,11.46
2023-04-01T21:38:56.369Z,11.60
2023-04-01T21:46:10.620Z,11.73
2023-04-01T21:49:58.475Z,11.73
2023-04-01T21:53:35.598Z,11.69
2023-04-01T21:57:18.272Z,11.81
2023-04-01T22:00:39.557Z,11.88
2023-04-01T22:04:18.401Z,11.96
2023-04-01T22:07:22.799Z,12.00
2023-04-01T22:10:56.229Z,11.94
2023-04-01T22:14:24.938Z,11.92
2023-04-01T22:17:42.555Z,11.96
2023-04-01T22:21:08.239Z,11.95
2023-04-01T22:24:30.500Z,12.00
2023-04-01T22:28:05.258Z,11.87
2023-04-01T22:31:17.285Z,11.82
2023-04-01T22:34:55.885Z,11.71
2023-04-01T22:38:37.257Z,11.65
2023-04-01T22:42:29.573Z,11.55
2023-04-01T22:46:05.272Z,11.77
2023-04-01T22:49:29.266Z,11.74
2023-04-01T22:52:39.603Z,11.71
2023-04-01T22:55:59.385Z,11.59
2023-04-01T22:59:26.262Z,11.59
2023-04-01T23:02:47.316Z,11.64
2023-04-01T23:06:04.243Z,11.58
2023-04-01T23:09:27.290Z,11.66
2023-04-01T23:12:30.310Z,11.64
2023-04-01T23:15:46.299Z,11.59
2023-04-01T23:19:17.953Z,11.52
2023-04-01T23:22:47.281Z,11.55
2023-04-01T23:26:12.241Z,11.61
2023-04-01T23:29:22.706Z,11.64
2023-04-01T23:32:33.260Z,11.52
2023-04-01T23:35:57.391Z,11.58
2023-04-01T23:39:27.245Z,11.58
2023-04-01T23:42:39.269Z,11.50
2023-04-01T23:45:47.946Z,11.39
2023-04-01T23:48:56.562Z,11.28
2023-04-01T23:52:28.293Z,11.13
2023-04-01T23:55:42.929Z,11.05
2023-04-01T23:59:03.973Z,11.06
